Time;durP1;ratioP1;P1;durP2;ratioP2;P2;SDS_P1;SDS_P2;PMS_P1;PMS_P2;Temp;Humidity;BMP_temperature;BMP_pressure;BME280_temperature;BME280_humidity;BME280_pressure;Samples;Min_cycle;Max_cycle;Signal;HPM_P1;HPM_P2
2023/10/18 00:02:00;;;;;;;16.70;12.57;;;;;;;10.80;56.34;98462.44;6923462;28;20203;-79
2023/10/18 00:05:22;;;;;;;16.50;11.80;;;;;;;10.99;56.27;98463.38;6924230;28;20231;-80
2023/10/18 00:08:45;;;;;;;15.63;12.10;;;;;;;10.33;57.36;98470.91;6924669;28;20670;-79
2023/10/18 00:12:08;;;;;;;13.90;11.70;;;;;;;10.21;57.24;98444.84;6922952;28;20207;-79
2023/10/18 00:15:31;;;;;;;16.10;11.40;;;;;;;10.34;56.99;98452.88;6924250;28;20224;-80
2023/10/18 00:18:52;;;;;;;14.63;11.63;;;;;;;10.34;56.24;98451.00;6912586;28;20712;-80
2023/10/18 00:22:14;;;;;;;13.87;11.40;;;;;;;10.36;56.99;98446.25;6920996;28;20297;-80
2023/10/18 00:25:37;;;;;;;13.40;11.17;;;;;;;10.44;57.17;98445.16;6921381;28;20223;-80
2023/10/18 00:29:00;;;;;;;16.53;11.97;;;;;;;9.56;58.19;98445.72;6921033;28;20405;-80
2023/10/18 00:32:21;;;;;;;17.47;12.87;;;;;;;9.83;59.06;98451.91;6920478;28;20240;-80
2023/10/18 00:35:43;;;;;;;18.63;13.20;;;;;;;9.46;59.60;98444.47;6920921;28;20231;-80
2023/10/18 00:39:18;;;;;;;17.13;13.67;;;;;;;9.40;60.05;98437.22;6921216;28;20310;-80
2023/10/18 00:42:41;;;;;;;20.70;14.87;;;;;;;9.70;60.09;98441.16;6918924;28;20702;-80
2023/10/18 00:46:06;;;;;;;18.33;13.83;;;;;;;9.94;59.60;98424.34;6920331;28;20246;-80
2023/10/18 00:49:28;;;;;;;17.37;13.37;;;;;;;10.23;58.34;98435.50;6918622;28;20213;-80
2023/10/18 00:52:49;;;;;;;17.30;12.20;;;;;;;10.15;56.94;98437.59;6922221;28;20211;-80
2023/10/18 00:56:15;;;;;;;16.03;12.53;;;;;;;10.01;56.60;98441.31;6924499;28;21193;-80
2023/10/18 00:59:38;;;;;;;15.77;12.50;;;;;;;9.63;57.80;98421.50;6931097;28;20228;-80
2023/10/18 01:03:06;;;;;;;16.87;12.83;;;;;;;9.82;58.14;98426.88;6946210;28;20229;-80
2023/10/18 01:06:29;;;;;;;16.40;13.20;;;;;;;10.01;57.88;98407.16;6933436;28;20214;-80
2023/10/18 01:09:53;;;;;;;18.33;12.60;;;;;;;9.94;57.84;98384.78;6941945;28;20230;-83
2023/10/18 01:13:15;;;;;;;17.80;13.43;;;;;;;9.81;58.44;98405.53;6939153;28;20213;-83
2023/10/18 01:16:37;;;;;;;17.43;13.00;;;;;;;9.67;58.42;98385.03;6926868;28;20375;-82
2023/10/18 01:19:59;;;;;;;15.37;12.00;;;;;;;9.72;57.01;98383.38;6925434;28;20230;-82
2023/10/18 01:23:21;;;;;;;17.77;13.13;;;;;;;9.21;59.39;98386.94;6927848;28;20290;-82
2023/10/18 01:26:44;;;;;;;17.03;14.33;;;;;;;9.34;59.66;98377.00;6910749;28;20225;-82
2023/10/18 01:30:08;;;;;;;19.40;13.93;;;;;;;9.35;59.41;98367.06;6931722;28;20203;-82
2023/10/18 01:33:31;;;;;;;20.53;15.03;;;;;;;9.26;59.97;98369.16;6943913;28;20238;-82
2023/10/18 01:36:56;;;;;;;19.80;14.07;;;;;;;9.29;59.70;98354.47;6930806;28;20377;-82
2023/10/18 01:40:22;;;;;;;20.73;14.27;;;;;;;9.22;59.44;98364.41;6928023;28;20298;-82
2023/10/18 01:43:45;;;;;;;18.23;13.53;;;;;;;9.10;59.66;98360.66;6928757;28;20214;-82
2023/10/18 01:47:07;;;;;;;20.83;15.57;;;;;;;8.41;61.61;98363.84;6928592;28;20215;-82
2023/10/18 01:50:28;;;;;;;21.07;15.80;;;;;;;8.92;61.63;98349.69;6929491;28;20201;-82
2023/10/18 01:53:50;;;;;;;21.10;15.63;;;;;;;9.05;60.27;98349.69;6929397;28;20231;-82
2023/10/18 01:57:12;;;;;;;21.50;14.53;;;;;;;9.22;59.60;98345.56;6922579;28;20305;-82
2023/10/18 02:00:41;;;;;;;20.53;14.83;;;;;;;9.22;58.73;98357.13;6923773;28;20601;-82
2023/10/18 02:04:04;;;;;;;22.80;15.33;;;;;;;9.17;59.43;98351.53;6927450;28;20204;-82
2023/10/18 02:07:26;;;;;;;23.40;16.87;;;;;;;8.70;60.48;98331.25;6931986;28;20236;-82
2023/10/18 02:10:49;;;;;;;23.40;16.33;;;;;;;9.21;60.64;98346.59;6931681;28;20238;-82
2023/10/18 02:14:13;;;;;;;24.90;17.30;;;;;;;8.59;60.81;98286.19;6926017;28;20221;-83
2023/10/18 02:17:36;;;;;;;21.60;15.83;;;;;;;8.93;60.82;98340.59;6932763;28;20233;-84
2023/10/18 02:20:58;;;;;;;23.47;16.63;;;;;;;8.86;60.24;98274.41;6933833;28;20227;-83
2023/10/18 02:24:19;;;;;;;19.27;15.30;;;;;;;9.37;59.28;98325.47;6936469;28;20746;-82
2023/10/18 02:27:44;;;;;;;21.40;15.23;;;;;;;9.23;59.38;98326.53;6937874;28;20228;-83
2023/10/18 02:31:10;;;;;;;23.13;17.13;;;;;;;8.64;60.40;98329.38;6929646;28;20206;-83
2023/10/18 02:34:34;;;;;;;25.00;16.77;;;;;;;8.90;60.96;98334.81;6932833;28;20223;-83
2023/10/18 02:37:55;;;;;;;25.57;18.30;;;;;;;8.96;61.05;98331.28;6930118;28;20651;-82
2023/10/18 02:41:20;;;;;;;25.30;17.23;;;;;;;9.13;60.46;98311.84;6938218;28;20233;-82
2023/10/18 02:44:48;;;;;;;19.90;15.33;;;;;;;9.46;59.76;98337.66;6936851;28;20294;-82
2023/10/18 02:48:30;;;;;;;22.63;15.60;;;;;;;9.49;59.08;98353.41;6934801;28;20239;-82
2023/10/18 02:51:57;;;;;;;23.57;17.73;;;;;;;8.91;60.34;98339.94;6936363;28;20192;-84
2023/10/18 02:55:19;;;;;;;22.03;17.23;;;;;;;8.93;60.96;98332.53;6935930;28;20226;-82
2023/10/18 02:58:41;;;;;;;22.23;17.57;;;;;;;9.17;60.69;98329.22;6933587;28;20210;-85
2023/10/18 03:02:13;;;;;;;21.03;15.93;;;;;;;9.41;60.42;98328.56;6926877;28;20305;-84
2023/10/18 03:05:40;;;;;;;21.57;16.17;;;;;;;9.42;59.39;98325.69;6933287;28;20282;-81
2023/10/18 03:09:05;;;;;;;21.93;14.83;;;;;;;9.10;59.16;98294.25;6935431;28;20211;-82
2023/10/18 03:12:28;;;;;;;22.37;16.27;;;;;;;8.76;60.77;98317.00;6926751;28;20210;-82
2023/10/18 03:16:04;;;;;;;21.30;16.80;;;;;;;8.76;60.78;98282.06;6929485;28;20297;-81
2023/10/18 03:19:26;;;;;;;19.33;15.07;;;;;;;8.89;60.38;98309.78;6923881;28;20200;-81
2023/10/18 03:22:49;;;;;;;21.47;16.37;;;;;;;9.03;59.62;98316.81;6929528;28;20914;-81
2023/10/18 03:26:12;;;;;;;19.80;15.67;;;;;;;9.10;60.03;98321.16;6929491;28;20207;-82
2023/10/18 03:29:37;;;;;;;20.97;15.63;;;;;;;8.98;59.29;98295.09;6925124;28;20207;-82
2023/10/18 03:33:00;;;;;;;24.97;16.47;;;;;;;8.74;59.16;98257.25;6933885;28;20209;-82
2023/10/18 03:36:25;;;;;;;24.10;17.00;;;;;;;8.76;60.55;98280.22;6941893;28;20228;-82
2023/10/18 03:39:47;;;;;;;27.03;16.87;;;;;;;8.91;60.87;98301.50;6927156;28;20253;-83
2023/10/18 03:43:10;;;;;;;23.57;17.00;;;;;;;8.87;61.09;98297.56;6928587;28;20206;-83
2023/10/18 03:46:39;;;;;;;24.43;17.07;;;;;;;8.71;61.94;98289.94;6928192;28;20273;-83
2023/10/18 03:50:01;;;;;;;23.17;17.03;;;;;;;9.10;60.07;98270.06;6929085;28;20216;-83
2023/10/18 03:53:22;;;;;;;23.97;17.33;;;;;;;9.37;59.24;98298.56;6933746;28;20203;-84
2023/10/18 03:56:44;;;;;;;20.17;14.97;;;;;;;9.18;59.60;98296.75;6936705;28;20262;-84
2023/10/18 04:03:45;;;;;;;21.93;16.03;;;;;;;9.06;59.87;98238.41;6927768;28;20199;-84
2023/10/18 04:07:13;;;;;;;24.20;17.13;;;;;;;9.05;59.00;98213.38;6927790;28;20227;-84
2023/10/18 04:10:37;;;;;;;24.43;17.13;;;;;;;9.35;58.97;98281.00;6935871;28;20208;-83
2023/10/18 04:13:59;;;;;;;26.23;17.57;;;;;;;9.26;59.19;98242.72;6933962;28;20207;-83
2023/10/18 04:17:39;;;;;;;23.57;16.83;;;;;;;9.36;58.98;98231.53;6933861;28;20671;-83
2023/10/18 04:21:05;;;;;;;20.17;14.67;;;;;;;9.23;58.70;98228.88;6918487;28;20584;-84
2023/10/18 04:24:28;;;;;;;18.53;15.13;;;;;;;9.20;58.23;98240.88;6927440;28;20202;-85
2023/10/18 04:27:50;;;;;;;26.83;17.37;;;;;;;8.70;58.84;98242.56;6925445;28;20231;-84
2023/10/18 04:31:12;;;;;;;25.40;18.57;;;;;;;8.69;61.30;98239.06;6909607;28;20296;-84
2023/10/18 04:34:35;;;;;;;23.30;17.60;;;;;;;8.76;60.24;98225.63;6939191;28;20304;-84
2023/10/18 04:37:57;;;;;;;23.00;16.37;;;;;;;8.67;60.20;98222.31;6927739;28;20222;-84
2023/10/18 04:41:27;;;;;;;26.13;18.57;;;;;;;8.54;60.52;98219.63;6927595;28;20236;-84
2023/10/18 04:45:23;;;;;;;28.97;20.90;;;;;;;8.45;63.09;98215.50;6931322;28;20199;-83
2023/10/18 04:52:57;;;;;;;23.60;16.47;;;;;;;9.14;59.93;98212.13;6845327;28;20612;-82
2023/10/18 04:56:18;;;;;;;25.93;16.97;;;;;;;8.52;60.85;98216.34;6873054;28;20226;-83
2023/10/18 04:59:46;;;;;;;24.57;17.43;;;;;;;8.08;61.37;98114.03;6936036;28;20217;-82
2023/10/18 05:03:13;;;;;;;24.67;18.00;;;;;;;8.31;62.11;98210.34;6920693;28;20201;-84
2023/10/18 05:11:03;;;;;;;;;;;;;;;;;;;;;
2023/10/18 05:18:14;;;;;;;22.63;17.30;;;;;;;9.17;58.85;98187.50;6928377;28;20230;-82
2023/10/18 05:21:38;;;;;;;29.77;20.57;;;;;;;9.24;59.14;98191.00;6928314;28;20654;-84
2023/10/18 05:25:15;;;;;;;22.47;17.23;;;;;;;9.39;58.68;98190.75;6926895;28;20286;-83
2023/10/18 05:28:47;;;;;;;23.73;17.57;;;;;;;9.37;58.89;98180.22;6922507;28;20209;-84
2023/10/18 05:32:13;;;;;;;23.80;18.03;;;;;;;9.18;58.82;98139.94;6919567;28;20211;-84
2023/10/18 05:35:35;;;;;;;22.20;16.13;;;;;;;9.08;59.29;98144.91;6923046;28;20224;-84
2023/10/18 05:39:06;;;;;;;23.97;17.33;;;;;;;8.77;59.16;98184.31;6920706;28;20236;-84
2023/10/18 05:42:27;;;;;;;26.97;18.70;;;;;;;8.41;61.69;98183.88;6918357;28;20234;-85
2023/10/18 05:45:56;;;;;;;28.47;18.93;;;;;;;9.02;60.77;98203.06;6932373;28;20266;-87
2023/10/18 05:49:23;;;;;;;26.37;19.80;;;;;;;8.98;60.74;98177.63;6930528;28;20244;-85
2023/10/18 05:53:35;;;;;;;25.97;19.00;;;;;;;9.09;60.41;98198.50;6939487;28;20206;-83
2023/10/18 05:56:58;;;;;;;29.23;19.70;;;;;;;9.45;59.97;98190.72;6828549;29;20301;-85
2023/10/18 06:08:42;;;;;;;27.13;18.63;;;;;;;8.84;59.46;98191.28;6933411;28;20305;-87
2023/10/18 06:12:06;;;;;;;25.53;17.67;;;;;;;9.11;59.66;98191.03;6935701;28;20633;-83
2023/10/18 06:15:34;;;;;;;28.13;19.43;;;;;;;8.28;61.30;98184.72;6936769;28;20216;-86
2023/10/18 06:18:59;;;;;;;27.60;19.63;;;;;;;8.95;61.12;98184.47;6936733;28;20203;-85
2023/10/18 06:27:06;;;;;;;26.50;18.37;;;;;;;9.46;60.27;98173.53;6827863;29;20241;-84
2023/10/18 06:30:31;;;;;;;25.87;18.37;;;;;;;9.58;59.59;98160.25;6871605;28;20354;-84
2023/10/18 06:33:56;;;;;;;27.70;18.07;;;;;;;8.93;60.15;98159.66;6927112;28;20227;-84
2023/10/18 06:42:13;;;;;;;23.07;17.50;;;;;;;9.51;59.85;98165.66;6823554;29;20607;-83
2023/10/18 06:45:40;;;;;;;24.83;17.73;;;;;;;9.24;60.13;98087.97;6826767;29;20241;-85
2023/10/18 06:49:02;;;;;;;26.60;17.57;;;;;;;9.82;59.00;98121.81;6814334;29;20220;-83
2023/10/18 06:52:30;;;;;;;21.07;16.53;;;;;;;10.34;57.02;98141.13;6812988;29;20214;-83
2023/10/18 06:55:56;;;;;;;23.03;16.67;;;;;;;10.46;56.12;98130.47;6810593;29;20245;-83
2023/10/18 06:59:25;;;;;;;21.50;16.97;;;;;;;10.26;57.04;98149.50;6813147;29;20224;-82
2023/10/18 07:02:50;;;;;;;20.73;16.30;;;;;;;10.01;57.63;98142.38;6815256;29;20222;-85
2023/10/18 07:06:18;;;;;;;26.63;20.27;;;;;;;9.76;58.69;98134.28;6819427;29;20229;-85
2023/10/18 07:09:42;;;;;;;28.33;20.60;;;;;;;9.84;59.67;98069.41;6812651;29;20223;-85
2023/10/18 07:13:03;;;;;;;22.77;17.60;;;;;;;10.99;57.50;98142.41;6800942;29;20221;-84
2023/10/18 07:16:35;;;;;;;22.10;16.70;;;;;;;11.01;56.37;98129.50;6831608;28;20224;-82
2023/10/18 07:19:59;;;;;;;21.13;16.47;;;;;;;11.15;56.17;98110.25;6926323;28;20206;-84
2023/10/18 07:23:21;;;;;;;20.43;15.37;;;;;;;11.42;56.23;98130.47;6927626;28;20233;-81
2023/10/18 07:26:42;;;;;;;19.67;14.87;;;;;;;11.26;56.15;98128.38;6927219;28;20254;-82
2023/10/18 07:30:13;;;;;;;21.80;15.80;;;;;;;11.18;57.32;98134.09;6911603;28;20207;-82
2023/10/18 07:33:40;;;;;;;22.33;17.73;;;;;;;10.91;58.79;98111.16;6916116;28;20230;-82
2023/10/18 07:37:17;;;;;;;21.10;17.03;;;;;;;11.72;56.55;98098.97;6916888;28;20224;-82
2023/10/18 07:40:41;;;;;;;22.23;17.77;;;;;;;10.72;57.77;98087.91;6921387;28;20354;-82
2023/10/18 07:44:05;;;;;;;19.90;16.67;;;;;;;11.82;56.36;98090.28;6916172;28;20208;-82
2023/10/18 07:47:32;;;;;;;22.00;16.47;;;;;;;12.07;54.57;98037.75;6915301;28;20235;-82
2023/10/18 07:50:54;;;;;;;18.27;16.23;;;;;;;12.30;54.26;98063.97;6915196;28;20296;-81
2023/10/18 07:54:20;;;;;;;19.97;16.20;;;;;;;12.50;54.20;98059.84;6923033;28;20258;-81
2023/10/18 07:57:46;;;;;;;20.23;15.47;;;;;;;12.71;53.40;98047.63;6923174;28;20235;-81
2023/10/18 08:01:09;;;;;;;19.53;16.03;;;;;;;12.89;53.42;98042.06;6916833;28;20224;-81
2023/10/18 08:04:31;;;;;;;22.70;15.23;;;;;;;13.12;52.39;98047.47;6915709;28;20211;-82
2023/10/18 08:07:52;;;;;;;18.13;14.10;;;;;;;13.11;52.27;98043.91;6919653;28;20231;-82
2023/10/18 08:11:15;;;;;;;22.07;15.50;;;;;;;13.40;52.18;98028.53;6914668;28;20223;-80
2023/10/18 08:14:37;;;;;;;19.37;15.83;;;;;;;12.95;53.45;98020.34;6916337;28;20219;-80
2023/10/18 08:18:00;;;;;;;20.47;15.33;;;;;;;13.26;52.24;98017.19;6913363;28;20219;-80
2023/10/18 08:21:28;;;;;;;18.43;14.50;;;;;;;14.12;49.45;98011.41;6913658;28;20600;-80
2023/10/18 08:24:50;;;;;;;15.97;13.77;;;;;;;14.29;49.29;98004.13;6906769;28;20203;-80
2023/10/18 08:28:13;;;;;;;17.37;14.90;;;;;;;15.01;48.15;98022.81;6915590;28;20221;-80
2023/10/18 08:31:35;;;;;;;16.40;12.77;;;;;;;14.80;48.22;98022.78;6910897;28;20295;-79
2023/10/18 08:35:06;;;;;;;14.70;13.03;;;;;;;14.64;48.19;98024.44;6894877;28;20295;-80
2023/10/18 08:38:28;;;;;;;18.27;14.70;;;;;;;14.12;49.30;98033.94;6899200;28;20307;-80
2023/10/18 08:42:02;;;;;;;17.47;12.60;;;;;;;14.65;48.68;98053.25;6914692;28;20235;-80
2023/10/18 08:45:25;;;;;;;16.50;14.20;;;;;;;14.20;49.42;98040.84;6911410;28;20303;-80
2023/10/18 08:48:50;;;;;;;16.83;12.63;;;;;;;13.76;50.31;98022.72;6913344;28;20364;-80
2023/10/18 08:52:12;;;;;;;15.27;12.97;;;;;;;16.07;45.68;98024.78;6910856;28;20208;-80
2023/10/18 08:55:51;;;;;;;15.43;13.67;;;;;;;15.79;44.80;98033.22;6914098;28;20279;-80
2023/10/18 08:59:18;;;;;;;15.83;12.50;;;;;;;16.44;43.34;98020.22;6907960;28;20205;-80
2023/10/18 09:02:41;;;;;;;14.80;11.73;;;;;;;16.48;43.91;98021.34;6912751;28;20228;-80
2023/10/18 09:06:07;;;;;;;14.23;12.73;;;;;;;15.91;45.21;98017.56;6916649;28;20257;-79
2023/10/18 09:09:34;;;;;;;13.37;11.27;;;;;;;15.66;45.67;98033.63;6898329;28;20309;-80
2023/10/18 09:13:30;;;;;;;12.60;11.30;;;;;;;15.39;46.54;98032.81;6907147;28;20571;-80
2023/10/18 09:17:00;;;;;;;16.90;11.87;;;;;;;16.06;46.11;98015.84;6903316;28;20221;-80
2023/10/18 09:20:26;;;;;;;12.70;11.37;;;;;;;15.65;47.41;98018.41;6921116;28;20201;-80
2023/10/18 09:23:59;;;;;;;12.90;11.60;;;;;;;16.69;44.24;98007.59;6915868;28;20221;-80
2023/10/18 09:27:23;;;;;;;12.87;10.80;;;;;;;16.97;44.14;98000.94;6912081;28;20229;-80
2023/10/18 09:30:44;;;;;;;13.23;11.03;;;;;;;16.78;43.82;97994.31;6914094;28;20203;-81
2023/10/18 09:34:08;;;;;;;12.37;11.07;;;;;;;16.67;43.88;97989.91;6908579;28;20557;-80
2023/10/18 09:37:35;;;;;;;11.10;9.90;;;;;;;15.96;45.27;97971.41;6916842;28;20260;-80
2023/10/18 09:40:57;;;;;;;14.13;11.00;;;;;;;15.82;45.66;97984.59;6917144;28;20760;-81
2023/10/18 09:44:19;;;;;;;12.00;10.73;;;;;;;16.22;45.63;97963.19;6910252;28;20261;-80
2023/10/18 09:47:42;;;;;;;12.27;10.30;;;;;;;17.21;42.70;97973.00;6919462;28;20233;-81
2023/10/18 09:51:06;;;;;;;11.80;10.27;;;;;;;16.70;43.60;97957.53;6919255;28;20207;-80
2023/10/18 09:54:34;;;;;;;11.50;10.13;;;;;;;15.88;45.04;97920.22;6914624;28;20209;-79
2023/10/18 09:58:03;;;;;;;13.10;10.20;;;;;;;16.25;45.42;97957.22;6912974;28;20229;-80
2023/10/18 10:01:29;;;;;;;11.97;9.83;;;;;;;16.27;45.29;97935.22;6919273;28;20221;-80
2023/10/18 10:04:53;;;;;;;10.57;9.47;;;;;;;16.04;45.89;97950.00;6913856;28;20205;-80
2023/10/18 10:08:15;;;;;;;11.37;10.10;;;;;;;15.74;46.38;97944.31;6920193;28;20198;-83
2023/10/18 10:11:39;;;;;;;12.00;9.80;;;;;;;15.77;46.71;97932.94;6918019;28;20680;-80
2023/10/18 10:15:00;;;;;;;10.27;8.97;;;;;;;15.34;47.93;97926.81;6915931;28;20353;-80
2023/10/18 10:18:25;;;;;;;10.80;9.50;;;;;;;16.01;46.59;97909.75;6916358;28;20341;-80
2023/10/18 10:21:47;;;;;;;11.77;8.97;;;;;;;15.92;45.56;97905.06;6911129;28;20244;-79
2023/10/18 10:25:11;;;;;;;11.23;8.67;;;;;;;16.73;43.66;97909.91;6902052;28;20295;-80
2023/10/18 10:29:09;;;;;;;10.10;9.10;;;;;;;17.07;42.74;97916.56;6896820;28;20210;-78
2023/10/18 10:32:32;;;;;;;9.53;8.60;;;;;;;17.24;43.33;97885.31;6909656;28;20237;-78
2023/10/18 10:35:56;;;;;;;9.70;8.27;;;;;;;16.65;44.33;97903.09;6905861;28;20288;-80
2023/10/18 10:39:30;;;;;;;9.53;8.20;;;;;;;16.85;43.96;97896.88;6914848;28;20219;-78
2023/10/18 10:42:52;;;;;;;9.23;8.07;;;;;;;17.28;43.75;97891.81;6909234;28;20732;-81
2023/10/18 10:46:35;;;;;;;9.03;7.93;;;;;;;17.09;43.48;97871.63;6915212;28;20642;-81
2023/10/18 10:49:59;;;;;;;9.67;7.57;;;;;;;17.57;42.66;97860.28;6921152;28;20682;-81
2023/10/18 10:53:30;;;;;;;8.20;7.40;;;;;;;17.38;41.80;97817.50;6919589;28;20726;-80
2023/10/18 10:56:53;;;;;;;7.70;6.90;;;;;;;17.72;40.91;97841.22;6921392;28;20311;-80
2023/10/18 11:03:56;;;;;;;7.00;6.30;;;;;;;19.95;37.36;97852.44;6910261;28;20228;-80
2023/10/18 11:07:25;;;;;;;5.90;5.40;;;;;;;20.43;36.42;97837.72;6902520;28;20307;-80
2023/10/18 11:10:46;;;;;;;5.30;4.80;;;;;;;21.63;33.65;97835.00;6912841;28;20211;-81
2023/10/18 11:14:09;;;;;;;5.23;4.50;;;;;;;20.44;34.35;97825.66;6913299;28;20211;-80
2023/10/18 11:17:34;;;;;;;4.90;4.50;;;;;;;20.58;33.25;97835.63;6921211;28;20238;-81
2023/10/18 11:21:05;;;;;;;4.63;4.23;;;;;;;19.23;35.61;97825.94;6922588;28;20214;-81
2023/10/18 11:24:27;;;;;;;4.90;4.43;;;;;;;19.03;36.75;97814.31;6914362;28;20200;-81
2023/10/18 11:27:49;;;;;;;7.37;4.50;;;;;;;18.89;37.02;97796.91;6917166;28;20220;-81
2023/10/18 11:31:10;;;;;;;6.33;4.87;;;;;;;19.35;35.92;97790.88;6896356;28;20749;-81
2023/10/18 11:34:33;;;;;;;4.40;4.00;;;;;;;20.18;34.60;97797.78;6917521;28;20259;-80
2023/10/18 11:37:55;;;;;;;4.20;3.80;;;;;;;20.25;35.36;97800.16;6920393;28;20228;-80
2023/10/18 11:41:21;;;;;;;4.70;4.30;;;;;;;21.16;32.82;97806.13;6910778;28;20240;-81
2023/10/18 11:44:42;;;;;;;3.83;3.53;;;;;;;20.92;34.77;97787.00;6923008;28;20212;-80
2023/10/18 11:48:06;;;;;;;4.40;3.97;;;;;;;20.84;33.62;97777.47;6920846;28;20271;-80
2023/10/18 11:51:27;;;;;;;6.10;3.77;;;;;;;19.74;35.76;97719.72;6921273;28;20468;-80
2023/10/18 11:54:52;;;;;;;4.60;4.20;;;;;;;19.13;36.27;97763.16;6916809;28;20248;-81
2023/10/18 11:58:13;;;;;;;5.00;4.23;;;;;;;19.23;36.61;97740.44;6919241;28;20210;-80
2023/10/18 12:01:35;;;;;;;4.33;3.93;;;;;;;19.89;35.68;97735.97;6914574;28;20227;-80
2023/10/18 12:04:57;;;;;;;4.77;4.03;;;;;;;19.43;36.82;97732.03;6922729;28;20204;-80
2023/10/18 12:08:18;;;;;;;4.93;3.90;;;;;;;20.12;35.21;97732.44;6908273;28;20215;-81
2023/10/18 12:11:41;;;;;;;8.43;3.73;;;;;;;21.16;33.41;97710.19;6908427;28;20232;-80
2023/10/18 12:15:06;;;;;;;4.77;4.37;;;;;;;20.38;34.63;97715.41;6914916;28;20293;-83
2023/10/18 12:18:28;;;;;;;4.03;3.63;;;;;;;19.39;36.59;97723.59;6909661;28;20294;-82
2023/10/18 12:21:54;;;;;;;4.13;3.83;;;;;;;20.60;35.27;97696.50;6923999;28;20219;-82
2023/10/18 12:25:15;;;;;;;5.73;3.77;;;;;;;20.86;34.06;97650.34;6911372;28;20243;-82
2023/10/18 12:28:41;;;;;;;7.73;4.93;;;;;;;20.97;33.93;97714.84;6922616;28;20617;-82
2023/10/18 12:32:19;;;;;;;3.33;3.10;;;;;;;21.23;33.92;97697.69;6913281;28;20196;-82
2023/10/18 12:35:41;;;;;;;3.57;3.27;;;;;;;21.33;33.48;97688.50;6915139;28;20644;-82
2023/10/18 12:39:03;;;;;;;3.93;2.93;;;;;;;21.56;33.08;97682.88;6919664;28;20199;-80
2023/10/18 12:42:25;;;;;;;4.50;3.10;;;;;;;21.62;32.94;97687.97;6913684;28;20223;-83
2023/10/18 12:45:50;;;;;;;3.60;3.30;;;;;;;21.25;32.67;97693.53;6918162;28;20229;-83
2023/10/18 12:49:12;;;;;;;3.47;3.17;;;;;;;21.16;33.19;97693.75;6919142;28;20211;-83
2023/10/18 12:52:44;;;;;;;4.63;3.27;;;;;;;20.81;33.30;97670.41;6922800;28;20209;-83
2023/10/18 12:56:32;;;;;;;4.33;3.40;;;;;;;21.63;33.29;97675.88;6925840;28;20227;-82
2023/10/18 13:00:00;;;;;;;4.03;3.40;;;;;;;21.78;33.05;97650.09;6897509;28;20282;-83
2023/10/18 13:03:28;;;;;;;3.70;3.40;;;;;;;21.37;32.95;97649.22;6898639;28;20291;-82
2023/10/18 13:06:50;;;;;;;6.70;3.77;;;;;;;21.20;33.04;97652.50;6924808;28;20707;-82
2023/10/18 13:10:15;;;;;;;4.00;3.23;;;;;;;21.24;33.45;97636.31;6927639;28;20232;-82
2023/10/18 13:13:37;;;;;;;5.47;3.47;;;;;;;21.10;33.50;97575.13;6930835;28;20211;-82
2023/10/18 13:17:00;;;;;;;3.80;3.40;;;;;;;20.82;33.26;97600.00;6930672;28;20231;-82
2023/10/18 13:20:25;;;;;;;3.90;3.57;;;;;;;21.14;33.04;97634.53;6921646;28;20937;-82
2023/10/18 13:23:46;;;;;;;6.10;3.10;;;;;;;21.30;33.82;97640.56;6932284;28;20223;-82
2023/10/18 13:27:14;;;;;;;4.13;3.73;;;;;;;21.27;33.94;97603.59;6927314;28;20266;-82
2023/10/18 13:30:43;;;;;;;5.27;3.80;;;;;;;20.90;34.16;97550.84;6939636;28;20595;-82
2023/10/18 13:34:07;;;;;;;5.60;3.30;;;;;;;21.42;33.38;97641.69;6935005;28;20206;-82
2023/10/18 13:37:30;;;;;;;3.50;3.20;;;;;;;21.28;33.42;97613.44;6919073;28;20235;-82
2023/10/18 13:40:52;;;;;;;4.07;3.53;;;;;;;21.33;33.87;97624.34;6921937;28;20227;-82
2023/10/18 13:44:13;;;;;;;6.63;3.77;;;;;;;20.80;34.16;97626.91;6925571;28;20235;-82
2023/10/18 13:47:35;;;;;;;4.17;3.33;;;;;;;21.08;34.13;97623.13;6927849;28;20229;-81
2023/10/18 13:50:58;;;;;;;3.70;3.30;;;;;;;20.93;33.95;97610.50;6927408;28;20254;-83
2023/10/18 13:54:22;;;;;;;4.07;3.40;;;;;;;20.63;34.75;97607.44;6926036;28;20208;-81
2023/10/18 13:57:45;;;;;;;3.93;3.50;;;;;;;20.60;34.87;97597.91;6923811;28;20318;-82
2023/10/18 14:01:06;;;;;;;3.83;3.53;;;;;;;20.82;34.90;97600.00;6920556;28;20207;-82
2023/10/18 14:04:32;;;;;;;3.87;3.30;;;;;;;20.68;34.78;97578.03;6924350;28;20224;-82
2023/10/18 14:07:54;;;;;;;8.10;3.80;;;;;;;20.64;34.90;97595.38;6922697;28;20235;-82
2023/10/18 14:11:17;;;;;;;5.90;4.47;;;;;;;20.59;34.52;97589.97;6923318;28;20277;-83
2023/10/18 14:14:39;;;;;;;5.33;4.20;;;;;;;20.48;35.09;97594.81;6921722;28;20208;-81
2023/10/18 14:18:01;;;;;;;6.43;4.53;;;;;;;20.77;34.76;97587.22;6922638;28;20275;-82
2023/10/18 14:21:24;;;;;;;4.20;3.53;;;;;;;20.78;35.01;97573.19;6921289;28;20203;-82
2023/10/18 14:24:46;;;;;;;4.07;3.67;;;;;;;20.91;35.01;97570.81;6920818;28;20231;-82
2023/10/18 14:28:09;;;;;;;7.90;4.63;;;;;;;20.85;35.29;97578.28;6922773;28;20294;-81
2023/10/18 14:31:32;;;;;;;5.97;4.43;;;;;;;20.70;35.47;97561.31;6900494;28;20211;-81
2023/10/18 14:34:54;;;;;;;9.63;6.37;;;;;;;20.42;35.88;97565.88;6919563;28;20667;-81
2023/10/18 14:38:17;;;;;;;8.77;5.43;;;;;;;20.17;36.30;97568.19;6922067;28;20207;-82
2023/10/18 14:41:39;;;;;;;8.23;5.57;;;;;;;20.42;36.42;97585.03;6923406;28;20231;-82
2023/10/18 14:45:03;;;;;;;5.47;4.70;;;;;;;20.61;36.42;97590.47;6923241;28;20231;-81
2023/10/18 14:48:24;;;;;;;5.37;4.80;;;;;;;20.53;36.45;97586.50;6915030;28;20367;-81
2023/10/18 14:51:46;;;;;;;4.90;4.40;;;;;;;20.45;36.27;97569.94;6915953;28;20238;-82
2023/10/18 14:55:11;;;;;;;5.27;4.77;;;;;;;20.33;36.76;97564.09;6921529;28;20796;-81
2023/10/18 14:58:32;;;;;;;6.70;5.03;;;;;;;20.17;36.88;97577.19;6917088;28;20231;-81
2023/10/18 15:01:55;;;;;;;6.17;5.30;;;;;;;20.00;38.02;97582.34;6914500;28;21876;-79
2023/10/18 15:05:17;;;;;;;6.37;5.77;;;;;;;19.91;38.17;97577.78;6910510;28;20380;-77
2023/10/18 15:08:40;;;;;;;5.73;5.13;;;;;;;19.98;38.40;97578.28;6917165;28;20310;-79
2023/10/18 15:12:01;;;;;;;6.87;6.17;;;;;;;19.53;40.42;97576.94;6914929;28;20200;-79
2023/10/18 15:15:23;;;;;;;9.20;6.40;;;;;;;19.63;41.47;97579.53;6917855;28;20259;-82
2023/10/18 15:18:47;;;;;;;8.47;7.23;;;;;;;19.26;44.95;97575.88;6920058;28;20207;-80
2023/10/18 15:22:09;;;;;;;8.73;6.30;;;;;;;19.04;45.89;97581.00;6916828;28;20212;-80
2023/10/18 15:25:32;;;;;;;8.13;7.30;;;;;;;18.71;47.89;97574.50;6917988;28;20305;-80
2023/10/18 15:28:54;;;;;;;7.47;6.60;;;;;;;18.81;47.83;97571.66;6923802;28;20252;-80
2023/10/18 15:32:15;;;;;;;8.27;7.47;;;;;;;18.38;50.45;97567.09;6921673;28;20214;-81
2023/10/18 15:35:39;;;;;;;7.83;6.53;;;;;;;18.28;50.53;97578.06;6907113;28;20233;-80
2023/10/18 15:39:01;;;;;;;8.47;7.57;;;;;;;18.19;50.17;97577.03;6916657;28;20203;-80
2023/10/18 15:42:25;;;;;;;9.20;8.03;;;;;;;17.71;52.07;97553.34;6919685;28;20677;-79
2023/10/18 15:45:49;;;;;;;9.33;7.40;;;;;;;17.84;52.66;97579.97;6919474;28;20218;-80
2023/10/18 15:49:11;;;;;;;10.37;8.80;;;;;;;17.66;53.67;97580.63;6916430;28;20219;-80
2023/10/18 15:52:35;;;;;;;10.17;9.00;;;;;;;17.38;54.25;97584.00;6908099;28;20209;-80
2023/10/18 15:55:56;;;;;;;10.73;9.60;;;;;;;17.10;55.10;97586.50;6913451;28;20230;-81
2023/10/18 15:59:18;;;;;;;11.07;9.73;;;;;;;16.96;55.89;97594.41;6915822;28;20300;-80
2023/10/18 16:02:41;;;;;;;13.57;10.93;;;;;;;16.83;56.97;97584.09;6907852;28;20608;-80
2023/10/18 16:06:02;;;;;;;12.67;10.23;;;;;;;16.84;56.92;97580.28;6915477;28;20235;-81
2023/10/18 16:09:27;;;;;;;11.63;10.17;;;;;;;17.08;55.80;97581.31;6915733;28;20296;-80
2023/10/18 16:12:49;;;;;;;11.80;9.93;;;;;;;16.41;57.86;97563.69;6914727;28;20204;-81
2023/10/18 16:16:11;;;;;;;11.70;10.07;;;;;;;16.58;57.75;97551.44;6912262;28;20236;-80
2023/10/18 16:19:35;;;;;;;12.87;11.00;;;;;;;16.10;57.86;97549.22;6906406;28;20233;-80
2023/10/18 16:22:56;;;;;;;13.10;10.73;;;;;;;16.25;57.94;97540.28;6912267;28;20698;-80
2023/10/18 16:26:22;;;;;;;12.47;10.50;;;;;;;16.43;57.79;97546.03;6912388;28;20233;-79
2023/10/18 16:29:44;;;;;;;13.33;10.80;;;;;;;16.35;57.79;97534.84;6916437;28;20193;-81
2023/10/18 16:33:05;;;;;;;13.37;12.00;;;;;;;16.04;57.91;97547.59;6915467;28;20300;-80